Time;durP1;ratioP1;P1;durP2;ratioP2;P2;SDS_P1;SDS_P2;PMS_P1;PMS_P2;Temp;Humidity;BMP_temperature;BMP_pressure;BME280_temperature;BME280_humidity;BME280_pressure;Samples;Min_cycle;Max_cycle;Signal;HPM_P1;HPM_P2
2022/04/17 00:01:03;;;;;;;0.60;0.40;;;19.60;47.20;;;;;;6176973;28;20063;-68
2022/04/17 00:04:04;;;;;;;0.32;0.30;;;19.60;47.20;;;;;;6177290;28;20043;-68
2022/04/17 00:07:04;;;;;;;0.40;0.40;;;19.60;47.10;;;;;;6177411;28;20679;-69
2022/04/17 00:10:08;;;;;;;0.85;0.60;;;19.60;47.30;;;;;;6177740;28;20031;-68
2022/04/17 00:13:09;;;;;;;0.77;0.50;;;19.60;47.10;;;;;;6177487;28;20247;-68
2022/04/17 00:16:10;;;;;;;0.63;0.50;;;19.60;47.20;;;;;;6175666;28;20026;-68
2022/04/17 00:19:10;;;;;;;0.43;0.40;;;19.60;47.20;;;;;;6177600;28;20493;-67
2022/04/17 00:22:12;;;;;;;0.50;0.50;;;19.60;47.20;;;;;;6177911;28;20046;-68
2022/04/17 00:25:14;;;;;;;0.75;0.50;;;19.60;47.10;;;;;;6177152;28;20038;-67
2022/04/17 00:28:14;;;;;;;0.63;0.47;;;19.60;47.10;;;;;;6177167;28;20034;-69
2022/04/17 00:31:15;;;;;;;0.93;0.60;;;19.60;47.10;;;;;;6159273;28;20036;-69
2022/04/17 00:34:15;;;;;;;0.50;0.40;;;19.60;47.00;;;;;;6174957;28;20027;-68
2022/04/17 00:37:16;;;;;;;0.57;0.50;;;19.60;47.10;;;;;;6176957;28;20027;-66
2022/04/17 00:40:16;;;;;;;0.63;0.50;;;19.60;47.00;;;;;;6177461;28;20138;-67
2022/04/17 00:43:30;;;;;;;0.65;0.50;;;19.60;47.20;;;;;;6169738;28;20047;-69
2022/04/17 00:46:31;;;;;;;0.40;0.35;;;19.60;47.00;;;;;;6129239;29;20039;-69
2022/04/17 00:49:31;;;;;;;0.75;0.60;;;19.60;47.00;;;;;;6129473;29;20086;-68
2022/04/17 00:52:32;;;;;;;0.82;0.60;;;19.60;47.00;;;;;;6143063;28;20477;-67
2022/04/17 00:55:34;;;;;;;0.63;0.60;;;19.60;47.00;;;;;;6175999;28;20027;-68
2022/04/17 00:58:36;;;;;;;0.40;0.40;;;19.60;47.00;;;;;;6176868;28;20031;-68
2022/04/17 01:01:38;;;;;;;0.73;0.50;;;19.60;47.00;;;;;;6168273;28;20486;-69
2022/04/17 01:04:39;;;;;;;0.47;0.40;;;19.60;47.60;;;;;;6148805;28;20114;-68
2022/04/17 01:07:40;;;;;;;0.80;0.60;;;19.60;47.00;;;;;;6149173;28;20568;-69
2022/04/17 01:10:41;;;;;;;0.60;0.52;;;19.60;47.00;;;;;;6149736;28;20043;-67
2022/04/17 01:13:42;;;;;;;1.00;0.50;;;19.60;47.00;;;;;;6148598;28;20130;-69
2022/04/17 01:16:42;;;;;;;0.30;0.30;;;19.60;47.00;;;;;;6148757;28;20027;-68
2022/04/17 01:19:43;;;;;;;0.93;0.60;;;19.60;47.00;;;;;;6149310;28;20114;-68
2022/04/17 01:22:48;;;;;;;0.70;0.35;;;19.60;47.00;;;;;;6148442;28;20031;-67
2022/04/17 01:29:09;;;;;;;1.10;0.60;;;19.60;47.00;;;;;;6171055;28;20043;-68
2022/04/17 01:32:10;;;;;;;0.40;0.40;;;19.60;46.90;;;;;;6148640;29;20118;-67
2022/04/17 01:35:11;;;;;;;0.82;0.60;;;19.60;46.90;;;;;;6148721;29;20478;-67
2022/04/17 01:38:11;;;;;;;0.82;0.50;;;19.60;47.00;;;;;;6168479;28;20081;-67
2022/04/17 01:41:15;;;;;;;0.60;0.50;;;19.60;47.00;;;;;;6172662;28;20073;-68
2022/04/17 01:44:16;;;;;;;0.55;0.43;;;19.60;46.90;;;;;;6149721;28;20055;-67
2022/04/17 01:47:17;;;;;;;0.95;0.50;;;19.60;47.00;;;;;;6124720;29;20322;-69
2022/04/17 01:50:17;;;;;;;0.80;0.50;;;19.60;47.00;;;;;;6124753;29;20062;-68
2022/04/17 01:53:18;;;;;;;0.60;0.50;;;19.60;46.90;;;;;;6135109;28;20027;-68
2022/04/17 01:56:18;;;;;;;0.75;0.60;;;19.60;46.90;;;;;;6170287;28;20073;-69
2022/04/17 01:59:22;;;;;;;0.47;0.45;;;19.60;46.90;;;;;;6172689;28;20065;-67
2022/04/17 02:02:22;;;;;;;0.52;0.50;;;19.60;46.90;;;;;;6171981;28;20182;-68
2022/04/17 02:05:23;;;;;;;1.08;0.60;;;19.60;47.00;;;;;;6171662;28;20035;-67
2022/04/17 02:08:24;;;;;;;0.88;0.47;;;19.60;46.90;;;;;;6171579;28;20617;-68
2022/04/17 02:11:25;;;;;;;0.70;0.50;;;19.60;47.00;;;;;;6171801;28;20019;-67
2022/04/17 02:14:26;;;;;;;0.40;0.40;;;19.60;46.90;;;;;;6170732;28;20745;-69
2022/04/17 02:17:26;;;;;;;0.68;0.57;;;19.60;47.60;;;;;;6171665;28;20030;-66
2022/04/17 02:20:27;;;;;;;1.05;0.52;;;19.60;47.00;;;;;;6171164;28;20449;-67
2022/04/17 02:23:27;;;;;;;0.65;0.50;;;19.60;47.00;;;;;;6171451;28;20046;-68
2022/04/17 02:26:28;;;;;;;0.70;0.50;;;19.60;47.00;;;;;;6171022;28;20069;-67
2022/04/17 02:29:29;;;;;;;0.30;0.30;;;19.60;47.00;;;;;;6167693;28;20328;-69
2022/04/17 02:32:29;;;;;;;0.77;0.50;;;19.60;47.00;;;;;;6147884;29;20027;-69
2022/04/17 02:35:30;;;;;;;1.05;0.60;;;19.60;47.00;;;;;;6147412;29;20063;-69
2022/04/17 02:38:31;;;;;;;0.57;0.50;;;19.60;47.00;;;;;;6146966;29;20023;-68
2022/04/17 02:41:32;;;;;;;0.68;0.40;;;19.60;46.90;;;;;;6147290;29;20031;-69
2022/04/17 02:44:32;;;;;;;0.40;0.30;;;19.60;47.00;;;;;;6133432;29;20095;-69
2022/04/17 02:47:46;;;;;;;0.57;0.50;;;19.60;47.00;;;;;;6123465;29;20428;-67
2022/04/17 02:50:47;;;;;;;0.40;0.40;;;19.60;47.00;;;;;;6123067;29;20118;-68
2022/04/17 02:53:48;;;;;;;0.70;0.50;;;19.60;47.00;;;;;;6141347;28;20485;-68
2022/04/17 02:56:49;;;;;;;0.50;0.45;;;19.60;47.00;;;;;;6170614;28;20031;-68
2022/04/17 02:59:49;;;;;;;0.60;0.60;;;19.60;47.00;;;;;;6170082;28;20541;-68
2022/04/17 03:06:10;;;;;;;0.60;0.60;;;19.60;46.90;;;;;;6169997;28;20047;-68
2022/04/17 03:09:12;;;;;;;0.82;0.57;;;19.60;47.00;;;;;;6170771;28;20031;-66
2022/04/17 03:12:12;;;;;;;0.98;0.30;;;19.60;47.60;;;;;;6170660;28;20035;-69
2022/04/17 03:15:13;;;;;;;0.52;0.43;;;19.60;46.90;;;;;;6170107;28;20058;-67
2022/04/17 03:18:14;;;;;;;0.50;0.40;;;19.60;46.90;;;;;;6170200;28;20028;-67
2022/04/17 03:21:14;;;;;;;0.55;0.50;;;19.60;46.90;;;;;;6168525;28;20027;-67
2022/04/17 03:24:15;;;;;;;0.65;0.47;;;19.60;46.90;;;;;;6169350;28;20043;-68
2022/04/17 03:27:16;;;;;;;0.68;0.38;;;19.60;46.90;;;;;;6170169;28;20022;-68
2022/04/17 03:30:18;;;;;;;0.82;0.50;;;19.60;46.90;;;;;;6159048;28;20114;-69
2022/04/17 03:33:18;;;;;;;0.50;0.40;;;19.60;46.90;;;;;;6146229;29;20395;-66
2022/04/17 03:36:19;;;;;;;0.85;0.47;;;19.60;46.90;;;;;;6145443;29;20024;-67
2022/04/17 03:39:19;;;;;;;1.10;0.60;;;19.50;46.80;;;;;;6146408;29;20055;-67
2022/04/17 03:42:21;;;;;;;0.70;0.50;;;19.60;46.90;;;;;;6146118;29;20047;-67
2022/04/17 03:45:22;;;;;;;1.23;0.47;;;19.60;47.00;;;;;;6125291;29;20044;-68
2022/04/17 03:48:23;;;;;;;0.60;0.50;;;19.60;47.00;;;;;;6122271;29;20024;-69
2022/04/17 03:51:24;;;;;;;1.02;0.55;;;19.60;46.90;;;;;;6122006;29;20491;-67
2022/04/17 03:54:24;;;;;;;0.57;0.50;;;19.60;47.00;;;;;;6149762;28;20089;-68
2022/04/17 03:57:25;;;;;;;0.80;0.60;;;19.50;46.80;;;;;;6169672;28;20106;-67
2022/04/17 04:00:25;;;;;;;0.60;0.47;;;19.50;46.80;;;;;;6168221;28;20125;-67
2022/04/17 04:03:26;;;;;;;0.82;0.50;;;19.60;46.90;;;;;;6169774;28;20034;-69
2022/04/17 04:06:27;;;;;;;0.70;0.57;;;19.60;47.00;;;;;;6169207;28;20030;-68
2022/04/17 04:09:27;;;;;;;0.68;0.52;;;19.50;46.80;;;;;;6169392;28;20035;-68
2022/04/17 04:12:28;;;;;;;0.45;0.32;;;19.60;47.00;;;;;;6169730;28;20034;-68
2022/04/17 04:15:28;;;;;;;0.57;0.50;;;19.50;46.90;;;;;;6168877;28;20023;-67
2022/04/17 04:18:29;;;;;;;1.13;0.60;;;19.60;46.90;;;;;;6169706;28;20066;-68
2022/04/17 04:21:30;;;;;;;0.60;0.45;;;19.50;46.80;;;;;;6168936;28;20098;-68
2022/04/17 04:24:31;;;;;;;1.27;0.60;;;19.60;46.80;;;;;;6169257;28;20108;-67
2022/04/17 04:30:50;;;;;;;0.77;0.60;;;19.60;47.00;;;;;;6154667;28;20137;-68
2022/04/17 04:33:51;;;;;;;0.63;0.55;;;19.50;46.80;;;;;;6144956;29;20504;-69
2022/04/17 04:36:52;;;;;;;1.08;0.63;;;19.60;46.90;;;;;;6148126;28;20058;-68
2022/04/17 04:39:52;;;;;;;1.10;0.65;;;19.60;46.90;;;;;;6149670;29;20039;-68
2022/04/17 04:42:59;;;;;;;0.75;0.47;;;19.60;46.90;;;;;;6149963;29;20035;-68
2022/04/17 04:46:06;;;;;;;0.57;0.50;;;19.60;46.90;;;;;;6125407;29;20427;-68
2022/04/17 04:52:26;;;;;;;0.63;0.43;;;19.50;46.80;;;;;;6125661;29;20027;-68
2022/04/17 04:55:26;;;;;;;0.88;0.60;;;19.50;46.80;;;;;;6169765;28;20042;-67
2022/04/17 04:58:27;;;;;;;1.00;0.40;;;19.50;46.80;;;;;;6173472;28;20046;-68
2022/04/17 05:01:27;;;;;;;1.27;0.75;;;19.50;46.90;;;;;;6165165;28;20042;-69
2022/04/17 05:04:29;;;;;;;0.98;0.60;;;19.50;46.90;;;;;;6149377;28;20039;-67
2022/04/17 05:07:29;;;;;;;0.80;0.65;;;19.50;46.80;;;;;;6148922;28;20039;-68
2022/04/17 05:10:30;;;;;;;0.82;0.60;;;19.60;46.90;;;;;;6164245;28;20029;-68
2022/04/17 05:13:30;;;;;;;1.20;0.70;;;19.50;46.80;;;;;;6148921;28;20364;-66
2022/04/17 05:16:31;;;;;;;0.85;0.60;;;19.60;47.00;;;;;;6149127;28;20027;-69
2022/04/17 05:19:32;;;;;;;0.70;0.60;;;19.60;47.00;;;;;;6149557;28;20034;-67
2022/04/17 05:22:33;;;;;;;1.60;0.50;;;19.50;46.80;;;;;;6148764;28;20371;-68
2022/04/17 05:25:33;;;;;;;0.75;0.60;;;19.60;46.90;;;;;;6148358;28;20047;-69
2022/04/17 05:28:34;;;;;;;1.00;0.60;;;19.50;46.80;;;;;;6148810;28;20031;-67
2022/04/17 05:31:34;;;;;;;1.33;0.80;;;19.50;46.80;;;;;;6148592;28;20168;-68
2022/04/17 05:34:35;;;;;;;0.95;0.50;;;19.50;46.90;;;;;;6148096;29;20027;-68
2022/04/17 05:37:36;;;;;;;0.57;0.50;;;19.50;46.90;;;;;;6148651;29;20019;-68
2022/04/17 05:40:48;;;;;;;0.95;0.70;;;19.50;46.80;;;;;;6148351;29;20059;-69
2022/04/17 05:43:49;;;;;;;1.20;0.63;;;19.50;46.90;;;;;;6140841;29;20495;-68
2022/04/17 05:46:49;;;;;;;0.80;0.60;;;19.50;46.80;;;;;;6123354;29;20046;-68
2022/04/17 05:49:49;;;;;;;0.60;0.60;;;19.50;46.90;;;;;;6124668;29;20032;-68
2022/04/17 05:52:51;;;;;;;0.65;0.50;;;19.50;46.80;;;;;;6127026;28;20034;-67
2022/04/17 05:55:51;;;;;;;0.73;0.60;;;19.50;46.90;;;;;;6171702;28;20438;-70
2022/04/17 05:58:52;;;;;;;1.13;0.60;;;19.50;46.80;;;;;;6172338;28;20059;-67
2022/04/17 06:01:52;;;;;;;0.70;0.47;;;19.50;46.80;;;;;;6172010;28;20034;-67
2022/04/17 06:04:53;;;;;;;1.00;0.70;;;19.50;46.80;;;;;;6144231;29;20047;-67
2022/04/17 06:07:54;;;;;;;1.50;0.60;;;19.50;46.80;;;;;;6144016;29;20039;-67
2022/04/17 06:10:55;;;;;;;0.70;0.63;;;19.50;46.90;;;;;;6144743;29;20086;-68
2022/04/17 06:13:55;;;;;;;0.70;0.50;;;19.60;47.00;;;;;;6144536;29;20036;-66
2022/04/17 06:16:56;;;;;;;0.75;0.63;;;19.50;46.80;;;;;;6143928;29;20334;-67
2022/04/17 06:19:56;;;;;;;1.00;0.70;;;19.50;46.80;;;;;;6144484;29;20035;-68
2022/04/17 06:22:57;;;;;;;1.55;0.70;;;19.60;46.80;;;;;;6144270;29;20744;-68
2022/04/17 06:25:59;;;;;;;0.55;0.50;;;19.60;46.90;;;;;;6143551;29;20518;-67
2022/04/17 06:29:07;;;;;;;1.45;0.50;;;19.60;47.00;;;;;;6143402;29;20082;-68
2022/04/17 06:32:07;;;;;;;0.70;0.60;;;19.50;46.80;;;;;;6120490;29;20032;-67
2022/04/17 06:35:09;;;;;;;1.15;0.70;;;19.50;46.80;;;;;;6129357;29;20463;-68
2022/04/17 06:38:10;;;;;;;1.35;0.52;;;19.50;46.80;;;;;;6147165;29;20030;-68
2022/04/17 06:41:11;;;;;;;0.68;0.60;;;19.60;46.90;;;;;;6158332;28;20019;-66
2022/04/17 06:44:12;;;;;;;1.15;0.52;;;19.50;46.90;;;;;;6149305;28;20047;-69
2022/04/17 06:47:12;;;;;;;0.65;0.60;;;19.50;46.70;;;;;;6122806;29;20520;-68
2022/04/17 06:50:15;;;;;;;0.82;0.60;;;19.60;47.00;;;;;;6122140;29;20020;-68
2022/04/17 06:53:15;;;;;;;0.80;0.60;;;19.60;47.00;;;;;;6132568;28;20026;-68
2022/04/17 06:56:18;;;;;;;0.80;0.70;;;19.50;46.80;;;;;;6170394;28;20077;-67
2022/04/17 06:59:18;;;;;;;1.05;0.60;;;19.60;47.00;;;;;;6169768;28;20405;-69
2022/04/17 07:02:19;;;;;;;1.10;0.75;;;19.50;46.80;;;;;;6170505;28;20022;-68
2022/04/17 07:05:20;;;;;;;1.25;0.60;;;19.60;47.00;;;;;;6170291;28;20493;-68
2022/04/17 07:08:20;;;;;;;0.98;0.60;;;19.50;47.00;;;;;;6170437;28;20027;-67
2022/04/17 07:11:23;;;;;;;0.80;0.50;;;19.60;47.00;;;;;;6170993;28;20382;-68
2022/04/17 07:14:23;;;;;;;1.10;0.60;;;19.60;47.00;;;;;;6169993;28;20086;-68
2022/04/17 07:17:33;;;;;;;0.70;0.50;;;19.60;47.00;;;;;;6170410;28;20074;-68
2022/04/17 07:20:35;;;;;;;0.68;0.50;;;19.60;47.00;;;;;;6169878;28;20018;-67
2022/04/17 07:23:35;;;;;;;0.63;0.50;;;19.60;47.10;;;;;;6170228;28;20479;-68
2022/04/17 07:26:36;;;;;;;0.90;0.57;;;19.50;47.00;;;;;;6169532;28;20086;-67
2022/04/17 07:29:38;;;;;;;1.30;0.70;;;19.60;47.00;;;;;;6164409;28;20062;-67
2022/04/17 07:32:44;;;;;;;0.93;0.70;;;19.60;47.00;;;;;;6146274;29;20023;-68
2022/04/17 07:35:45;;;;;;;0.70;0.52;;;19.60;47.00;;;;;;6145536;29;20509;-69
2022/04/17 07:38:45;;;;;;;0.50;0.50;;;19.60;47.10;;;;;;6145953;29;20035;-68
2022/04/17 07:41:46;;;;;;;1.02;0.60;;;19.60;47.10;;;;;;6145988;29;20027;-68
2022/04/17 07:44:48;;;;;;;0.77;0.60;;;19.60;47.10;;;;;;6144245;28;20039;-67
2022/04/17 07:47:52;;;;;;;0.70;0.52;;;19.60;47.10;;;;;;6144918;28;20059;-68
2022/04/17 07:50:54;;;;;;;0.90;0.65;;;19.60;47.10;;;;;;6146109;28;20039;-69
2022/04/17 07:53:55;;;;;;;0.52;0.50;;;19.50;47.10;;;;;;6155191;28;20023;-68
2022/04/17 07:56:56;;;;;;;0.73;0.73;;;19.60;47.10;;;;;;6169571;28;20027;-67
2022/04/17 07:59:56;;;;;;;0.60;0.40;;;19.60;47.20;;;;;;6169517;28;20130;-68
2022/04/17 08:03:10;;;;;;;0.60;0.40;;;19.60;47.20;;;;;;6169852;28;20325;-68
2022/04/17 08:06:10;;;;;;;0.70;0.50;;;19.50;47.10;;;;;;6169101;28;20509;-68
2022/04/17 08:09:11;;;;;;;0.60;0.50;;;19.60;47.10;;;;;;6168886;28;20027;-68
2022/04/17 08:12:11;;;;;;;0.60;0.50;;;19.50;47.10;;;;;;6173285;28;20397;-67
2022/04/17 08:15:12;;;;;;;0.70;0.65;;;19.60;47.20;;;;;;6174190;28;20031;-69
2022/04/17 08:18:13;;;;;;;1.52;0.52;;;19.60;47.10;;;;;;6173871;28;20089;-68
2022/04/17 08:21:13;;;;;;;0.73;0.73;;;19.50;47.00;;;;;;6174287;28;20080;-68
2022/04/17 08:24:14;;;;;;;0.55;0.45;;;19.60;47.10;;;;;;6174270;28;20440;-68
2022/04/17 08:27:14;;;;;;;0.55;0.40;;;19.60;47.10;;;;;;6174140;28;20034;-69
2022/04/17 08:30:26;;;;;;;0.77;0.50;;;19.60;47.10;;;;;;6164156;28;20035;-69
2022/04/17 08:33:26;;;;;;;0.50;0.45;;;19.60;47.10;;;;;;6149806;29;20528;-68
2022/04/17 08:36:27;;;;;;;0.80;0.60;;;19.60;47.10;;;;;;6149570;29;20054;-69
2022/04/17 08:39:27;;;;;;;0.57;0.50;;;19.60;47.10;;;;;;6149892;29;20032;-69
2022/04/17 08:42:31;;;;;;;0.77;0.50;;;19.60;47.10;;;;;;6150257;29;20378;-68
2022/04/17 08:45:31;;;;;;;1.23;0.52;;;19.60;47.10;;;;;;6128682;28;20107;-68
2022/04/17 08:48:32;;;;;;;0.77;0.63;;;19.60;47.10;;;;;;6125727;29;20095;-67
2022/04/17 08:51:33;;;;;;;0.65;0.52;;;19.60;47.10;;;;;;6125865;29;20031;-68
2022/04/17 08:54:34;;;;;;;0.50;0.50;;;19.60;47.10;;;;;;6153859;28;20037;-68
2022/04/17 08:57:35;;;;;;;0.50;0.40;;;19.60;47.10;;;;;;6174054;28;20030;-69
2022/04/17 09:00:35;;;;;;;0.60;0.40;;;19.60;47.00;;;;;;6173858;28;20061;-69
2022/04/17 09:03:36;;;;;;;0.70;0.60;;;19.60;47.00;;;;;;6173009;28;20042;-69
2022/04/17 09:06:37;;;;;;;0.75;0.60;;;19.60;47.00;;;;;;6173194;28;20354;-68
2022/04/17 09:09:39;;;;;;;0.40;0.40;;;19.60;47.10;;;;;;6173172;28;20118;-68
2022/04/17 09:12:44;;;;;;;0.65;0.47;;;19.60;47.00;;;;;;6173442;28;20030;-68
2022/04/17 09:15:47;;;;;;;0.70;0.50;;;19.60;47.10;;;;;;6173139;28;20066;-67
2022/04/17 09:18:47;;;;;;;0.52;0.50;;;19.60;47.00;;;;;;6172982;28;20489;-69
2022/04/17 09:21:54;;;;;;;1.05;0.55;;;19.60;47.10;;;;;;6165588;28;20027;-68
2022/04/17 09:25:11;;;;;;;0.93;0.40;;;19.60;47.10;;;;;;6148725;29;20031;-69
2022/04/17 09:28:12;;;;;;;0.50;0.40;;;19.60;47.00;;;;;;6148515;29;20110;-69
2022/04/17 09:31:13;;;;;;;0.50;0.40;;;19.60;47.00;;;;;;6148562;28;20031;-67
2022/04/17 09:34:13;;;;;;;0.95;0.50;;;19.60;47.00;;;;;;6148873;29;20030;-69
2022/04/17 09:37:19;;;;;;;0.85;0.77;;;19.60;47.00;;;;;;6148460;29;20031;-68
2022/04/17 09:40:20;;;;;;;0.38;0.32;;;19.60;47.00;;;;;;6148400;29;20402;-68
2022/04/17 09:43:21;;;;;;;0.30;0.30;;;19.60;47.00;;;;;;6144413;29;20091;-69
2022/04/17 09:46:21;;;;;;;0.60;0.50;;;19.60;47.00;;;;;;6124432;29;20026;-69
2022/04/17 09:49:22;;;;;;;0.80;0.52;;;19.60;47.00;;;;;;6124501;29;20078;-67
2022/04/17 09:52:29;;;;;;;0.57;0.40;;;19.60;47.00;;;;;;6124935;29;20487;-67
2022/04/17 09:55:31;;;;;;;0.40;0.40;;;19.60;47.00;;;;;;6124020;29;20078;-69
2022/04/17 09:58:36;;;;;;;0.57;0.50;;;19.60;47.00;;;;;;6122862;29;20123;-67
2022/04/17 10:01:36;;;;;;;0.52;0.50;;;19.60;47.00;;;;;;6124557;29;20083;-68
2022/04/17 10:04:39;;;;;;;0.57;0.50;;;19.60;47.00;;;;;;6124540;29;20126;-68
2022/04/17 10:07:41;;;;;;;0.45;0.40;;;19.60;47.00;;;;;;6124182;29;20031;-67
2022/04/17 10:10:43;;;;;;;0.77;0.50;;;19.60;47.00;;;;;;6124315;29;20083;-67
2022/04/17 10:13:45;;;;;;;0.30;0.30;;;19.60;47.00;;;;;;6147039;28;20393;-68
2022/04/17 10:16:48;;;;;;;0.30;0.30;;;19.60;47.00;;;;;;6147682;28;20508;-68
2022/04/17 10:19:50;;;;;;;0.50;0.40;;;19.60;47.00;;;;;;6147301;28;20019;-69
2022/04/17 10:22:57;;;;;;;0.30;0.30;;;19.60;47.00;;;;;;6148488;28;20497;-67
2022/04/17 10:26:04;;;;;;;0.55;0.47;;;19.60;47.00;;;;;;6147124;28;20047;-66
2022/04/17 10:29:10;;;;;;;0.43;0.35;;;19.60;47.00;;;;;;6147249;28;20366;-67
2022/04/17 10:32:38;;;;;;;0.55;0.45;;;19.60;47.00;;;;;;6147968;29;20027;-68
2022/04/17 10:36:12;;;;;;;0.47;0.40;;;19.60;47.00;;;;;;6147144;28;20055;-67
2022/04/17 10:39:27;;;;;;;0.60;0.50;;;19.60;47.00;;;;;;6147341;29;20102;-68
2022/04/17 10:42:35;;;;;;;1.15;0.50;;;19.60;47.00;;;;;;6146987;29;20339;-67
2022/04/17 10:46:11;;;;;;;0.25;0.22;;;19.60;47.00;;;;;;6124964;29;20044;-68
2022/04/17 10:49:12;;;;;;;0.50;0.40;;;19.60;47.00;;;;;;6123045;29;20034;-69
2022/04/17 10:52:26;;;;;;;0.60;0.40;;;19.60;47.00;;;;;;6123434;29;20027;-69
2022/04/17 10:55:26;;;;;;;0.30;0.30;;;19.60;47.00;;;;;;6167046;28;20041;-68
2022/04/17 10:58:42;;;;;;;0.65;0.50;;;19.60;47.00;;;;;;6171276;28;20023;-67
2022/04/17 11:01:45;;;;;;;0.47;0.40;;;19.60;47.00;;;;;;6170467;28;20126;-68
2022/04/17 11:04:53;;;;;;;1.50;0.30;;;19.60;47.00;;;;;;6170792;28;20525;-69
2022/04/17 11:08:20;;;;;;;0.50;0.40;;;19.60;47.00;;;;;;6170368;28;20031;-69
2022/04/17 11:11:21;;;;;;;0.40;0.40;;;19.60;47.00;;;;;;6170366;28;20030;-68
2022/04/17 11:14:23;;;;;;;0.80;0.45;;;19.60;47.00;;;;;;6170027;28;20027;-67
2022/04/17 11:17:24;;;;;;;0.40;0.32;;;19.60;47.00;;;;;;6170088;28;20190;-68
2022/04/17 11:20:25;;;;;;;0.32;0.32;;;19.60;47.00;;;;;;6170074;28;20064;-67
2022/04/17 11:23:47;;;;;;;0.55;0.40;;;19.60;47.00;;;;;;6170389;28;20075;-68
2022/04/17 11:26:53;;;;;;;0.38;0.30;;;19.60;47.00;;;;;;6169776;28;20105;-66
2022/04/17 11:29:54;;;;;;;0.32;0.32;;;19.60;47.00;;;;;;6162455;28;20379;-68
2022/04/17 11:32:56;;;;;;;0.57;0.40;;;19.60;47.00;;;;;;6146115;29;20039;-68
2022/04/17 11:35:57;;;;;;;0.60;0.50;;;19.60;47.00;;;;;;6144507;29;20430;-68
2022/04/17 11:38:58;;;;;;;0.43;0.30;;;19.60;47.00;;;;;;6146769;29;20030;-67
2022/04/17 11:41:59;;;;;;;0.20;0.20;;;19.60;47.00;;;;;;6152160;28;20486;-68
2022/04/17 11:45:03;;;;;;;0.40;0.40;;;19.60;47.00;;;;;;6135475;28;20476;-69
2022/04/17 11:48:05;;;;;;;0.32;0.30;;;19.60;47.00;;;;;;6122075;29;20031;-67
2022/04/17 11:51:18;;;;;;;0.30;0.30;;;19.60;47.00;;;;;;6122351;29;20301;-68
2022/04/17 11:54:31;;;;;;;0.80;0.40;;;19.60;47.00;;;;;;6148500;28;20106;-67
2022/04/17 11:57:32;;;;;;;0.32;0.32;;;19.60;47.00;;;;;;6169579;28;20035;-68
2022/04/17 12:00:33;;;;;;;0.35;0.30;;;19.60;47.00;;;;;;6169486;28;20051;-67
2022/04/17 12:03:34;;;;;;;0.47;0.30;;;19.60;47.00;;;;;;6169537;28;20034;-67
2022/04/17 12:06:35;;;;;;;0.20;0.20;;;19.60;47.00;;;;;;6169709;28;20119;-69
2022/04/17 12:09:35;;;;;;;0.57;0.50;;;19.60;47.00;;;;;;6169817;28;20477;-68
2022/04/17 12:12:41;;;;;;;0.52;0.40;;;19.60;47.00;;;;;;6169316;28;20035;-67
2022/04/17 12:15:43;;;;;;;0.55;0.50;;;19.60;47.00;;;;;;6169159;28;20027;-68
2022/04/17 12:18:53;;;;;;;0.30;0.30;;;19.60;47.00;;;;;;6169251;28;20046;-68
2022/04/17 12:21:54;;;;;;;0.30;0.30;;;19.60;47.00;;;;;;6169630;28;20533;-67
2022/04/17 12:24:54;;;;;;;0.77;0.40;;;19.60;47.00;;;;;;6169205;28;20159;-67
2022/04/17 12:27:55;;;;;;;0.30;0.30;;;19.60;47.00;;;;;;6169191;28;20034;-69
2022/04/17 12:30:56;;;;;;;0.63;0.40;;;19.60;47.00;;;;;;6164842;28;20039;-67
2022/04/17 12:34:13;;;;;;;0.40;0.40;;;19.60;47.00;;;;;;6168852;28;20474;-69
2022/04/17 12:37:19;;;;;;;0.93;0.40;;;19.60;47.00;;;;;;6158996;28;20106;-67
2022/04/17 12:40:21;;;;;;;0.40;0.40;;;19.60;47.00;;;;;;6145517;29;20420;-67
2022/04/17 12:43:22;;;;;;;0.40;0.40;;;19.60;47.00;;;;;;6145446;28;20564;-69
2022/04/17 12:46:30;;;;;;;0.40;0.35;;;19.60;47.00;;;;;;6144825;28;20126;-69
2022/04/17 12:49:30;;;;;;;0.57;0.40;;;19.60;47.00;;;;;;6145182;28;20031;-68
2022/04/17 12:52:31;;;;;;;0.45;0.40;;;19.60;47.00;;;;;;6145360;28;20430;-67
2022/04/17 12:55:34;;;;;;;0.40;0.40;;;19.60;47.00;;;;;;6168093;28;20031;-67
2022/04/17 12:58:55;;;;;;;0.40;0.30;;;19.60;47.00;;;;;;6173130;28;20371;-70
2022/04/17 13:01:56;;;;;;;0.50;0.50;;;19.60;47.00;;;;;;6173695;28;20043;-68
2022/04/17 13:04:59;;;;;;;0.40;0.30;;;19.60;47.00;;;;;;6173225;28;20058;-68
2022/04/17 13:08:08;;;;;;;0.38;0.32;;;19.60;47.00;;;;;;6173479;28;20089;-69
2022/04/17 13:11:20;;;;;;;0.52;0.40;;;19.60;47.00;;;;;;6172990;28;20027;-68
2022/04/17 13:14:22;;;;;;;0.40;0.40;;;19.60;47.10;;;;;;6173140;28;20018;-68
2022/04/17 13:17:23;;;;;;;0.30;0.30;;;19.60;47.00;;;;;;6172734;28;20485;-67
2022/04/17 13:20:27;;;;;;;0.40;0.30;;;19.60;47.00;;;;;;6173113;28;20031;-67
2022/04/17 13:23:28;;;;;;;0.40;0.40;;;19.60;47.00;;;;;;6173747;28;20089;-68
2022/04/17 13:26:29;;;;;;;0.20;0.20;;;19.60;47.00;;;;;;6172898;28;20026;-68
2022/04/17 13:29:29;;;;;;;0.63;0.40;;;19.60;47.00;;;;;;6168078;28;20031;-68
2022/04/17 13:32:30;;;;;;;0.38;0.32;;;19.60;47.00;;;;;;6149077;29;20085;-68
2022/04/17 13:35:30;;;;;;;0.30;0.30;;;19.60;47.00;;;;;;6148642;29;20514;-68
2022/04/17 13:38:31;;;;;;;0.40;0.40;;;19.60;47.00;;;;;;6148892;29;20028;-67
2022/04/17 13:41:32;;;;;;;0.20;0.20;;;19.60;47.00;;;;;;6148842;29;20363;-69
2022/04/17 13:44:33;;;;;;;0.40;0.30;;;19.60;47.00;;;;;;6134973;29;20036;-68
2022/04/17 13:47:34;;;;;;;0.40;0.38;;;19.60;47.00;;;;;;6124204;29;20619;-68
2022/04/17 13:50:37;;;;;;;0.90;0.50;;;19.60;47.00;;;;;;6124508;29;20039;-67
2022/04/17 13:53:37;;;;;;;0.35;0.30;;;19.60;47.00;;;;;;6140096;28;20031;-67
2022/04/17 13:56:38;;;;;;;0.50;0.45;;;19.60;47.00;;;;;;6172148;28;20486;-68
2022/04/17 13:59:39;;;;;;;0.20;0.20;;;19.60;47.10;;;;;;6172493;28;20050;-68
2022/04/17 14:02:39;;;;;;;0.30;0.30;;;19.60;47.10;;;;;;6172273;28;20030;-68
2022/04/17 14:05:40;;;;;;;0.50;0.40;;;19.60;47.00;;;;;;6171773;28;20122;-68
2022/04/17 14:08:41;;;;;;;0.30;0.30;;;19.60;47.00;;;;;;6171480;28;20085;-67
2022/04/17 14:11:43;;;;;;;0.40;0.30;;;19.60;47.00;;;;;;6171967;28;20033;-68
2022/04/17 14:14:44;;;;;;;0.35;0.35;;;19.60;47.00;;;;;;6172039;28;20692;-68
2022/04/17 14:17:45;;;;;;;0.30;0.30;;;19.60;47.10;;;;;;6171624;28;20031;-67
2022/04/17 14:20:45;;;;;;;0.30;0.30;;;19.60;47.00;;;;;;6171853;28;20054;-67
2022/04/17 14:23:46;;;;;;;0.20;0.20;;;19.60;47.80;;;;;;6171142;28;20043;-67
2022/04/17 14:26:46;;;;;;;0.63;0.30;;;19.60;47.00;;;;;;6171819;28;20026;-68
2022/04/17 14:29:49;;;;;;;0.20;0.20;;;19.60;47.00;;;;;;6164840;28;20097;-70
2022/04/17 14:32:49;;;;;;;0.43;0.40;;;19.60;47.00;;;;;;6146947;29;20031;-69
2022/04/17 14:35:56;;;;;;;0.40;0.40;;;19.60;47.10;;;;;;6147053;29;20022;-67
2022/04/17 14:38:57;;;;;;;0.30;0.30;;;19.60;47.10;;;;;;6148036;29;20023;-68
2022/04/17 14:41:58;;;;;;;0.40;0.30;;;19.60;47.10;;;;;;6147287;29;20039;-68
2022/04/17 14:44:58;;;;;;;0.30;0.30;;;19.60;47.10;;;;;;6130221;29;20340;-68
2022/04/17 14:47:59;;;;;;;0.55;0.30;;;19.60;47.10;;;;;;6123024;29;20035;-68
2022/04/17 14:51:03;;;;;;;0.20;0.20;;;19.60;47.10;;;;;;6123097;29;20115;-68
2022/04/17 14:54:10;;;;;;;0.40;0.40;;;19.60;47.10;;;;;;6145446;28;20038;-68
2022/04/17 14:57:11;;;;;;;0.30;0.30;;;19.60;47.10;;;;;;6170929;28;20050;-67
2022/04/17 15:00:12;;;;;;;0.20;0.20;;;19.60;47.10;;;;;;6170831;28;20385;-67
2022/04/17 15:03:13;;;;;;;0.40;0.30;;;19.60;47.10;;;;;;6171207;28;20109;-68
2022/04/17 15:06:13;;;;;;;0.20;0.20;;;19.60;47.10;;;;;;6170137;28;20485;-68
2022/04/17 15:09:14;;;;;;;0.32;0.20;;;19.60;47.10;;;;;;6170611;28;20031;-67
2022/04/17 15:12:14;;;;;;;0.35;0.30;;;19.60;47.10;;;;;;6170532;28;20097;-68
2022/04/17 15:15:15;;;;;;;0.30;0.20;;;19.60;47.10;;;;;;6170413;28;20035;-67
2022/04/17 15:18:15;;;;;;;0.30;0.30;;;19.60;47.10;;;;;;6168933;28;20026;-67
2022/04/17 15:21:16;;;;;;;0.40;0.32;;;19.60;47.10;;;;;;6168011;28;20042;-68
2022/04/17 15:24:17;;;;;;;0.30;0.30;;;19.60;47.10;;;;;;6146480;29;20039;-67
2022/04/17 15:27:17;;;;;;;0.22;0.22;;;19.60;47.10;;;;;;6146076;29;20027;-68
2022/04/17 15:30:18;;;;;;;0.20;0.20;;;19.60;47.10;;;;;;6146140;28;20090;-68
2022/04/17 15:33:18;;;;;;;0.28;0.28;;;19.60;47.10;;;;;;6163494;28;20056;-69
2022/04/17 15:36:19;;;;;;;0.22;0.22;;;19.60;47.20;;;;;;6169788;28;20106;-68
2022/04/17 15:39:19;;;;;;;0.40;0.20;;;19.60;47.10;;;;;;6170599;28;20067;-66
2022/04/17 15:42:20;;;;;;;0.20;0.20;;;19.60;47.10;;;;;;6169714;28;20183;-68
2022/04/17 15:48:54;;;;;;;0.20;0.20;;;19.60;47.10;;;;;;6100269;29;20546;-67
2022/04/17 15:51:55;;;;;;;0.30;0.30;;;19.60;47.10;;;;;;6122323;29;20032;-67
2022/04/17 15:54:55;;;;;;;0.20;0.20;;;19.60;47.10;;;;;;6157856;28;20090;-67
2022/04/17 15:57:56;;;;;;;0.40;0.40;;;19.60;47.10;;;;;;6169423;28;20065;-68
2022/04/17 16:00:56;;;;;;;0.22;0.22;;;19.60;47.10;;;;;;6170186;28;20061;-68
2022/04/17 16:03:57;;;;;;;0.50;0.38;;;19.60;47.10;;;;;;6169427;28;20750;-67
2022/04/17 16:06:58;;;;;;;0.32;0.30;;;19.60;47.10;;;;;;6170075;28;20027;-68